Peary Spirit — C6YM3 — position and weather

sailwx.info

Track history (hours):
 
Tides and Currents Weather Stations Pressure Air Temp Water Temp Dewpoint Dewpoint Depression Visibility Wind Speed Wind Dir Waves Ship Positions

Peary Spirit

Last reported at 2017-May-22 06:20 UTC. Time now 2017-May-23 01:10 UTC.
Position N 53°46' E 000°31'.

Length 249 m; draft 9.5 m.

Type: Tanker. MMSI: 311027600.

Date/timePositionNaut miles runAvg speedWind from/ knotsBaromVisibWave heightAir tempDewpointWater temp
2017-May-22 06:20N 53°46' E 000°31'  
2017-May-19 18:45N 53°36' E 000°19'411.8
2017-May-19 18:24N 53°33' E 000°13'3 8.2
2017-May-19 18:00N 53°32' E 000°08'0 0.9
2017-May-19 17:30N 53°32' E 000°07'0 0.1
2017-May-19 17:00N 53°32' E 000°07'0 0.0
2017-May-19 16:30N 53°32' E 000°07'0 0.0
2017-May-19 16:01N 53°32' E 000°07'0 0.1
2017-May-19 15:24N 53°32' E 000°07'0 0.1
2017-May-19 15:00N 53°32' E 000°07'0 0.0
2017-May-19 14:00N 53°32' E 000°07'0 0.0
2017-May-19 13:30N 53°32' E 000°07'0 0.0
2017-May-19 12:42N 53°32' E 000°07'0 0.1
2017-May-19 12:30N 53°32' E 000°07'0 0.1
2017-May-19 12:00N 53°32' E 000°07'0 0.0
2017-May-19 11:24N 53°32' E 000°07'0 0.1
2017-May-19 10:48N 53°32' E 000°07'0 0.0
2017-May-19 10:30N 53°32' E 000°07'0 0.1
2017-May-19 10:00N 53°32' E 000°07'0 0.1
2017-May-19 09:30N 53°32' E 000°07'0 0.1
2017-May-19 09:00N 53°32' E 000°07'0 0.1
2017-May-19 08:30N 53°32' E 000°07'0 0.0
2017-May-19 08:00N 53°32' E 000°07'0 0.2
2017-May-19 07:30N 53°32' E 000°07'0 0.0
2017-May-19 06:48N 53°32' E 000°07'0 0.0
2017-May-19 06:30N 53°32' E 000°07'0 0.0
2017-May-19 05:48N 53°32' E 000°07'0 0.1
2017-May-19 05:24N 53°32' E 000°07'0 0.1
2017-May-19 04:48N 53°32' E 000°07'0 0.0
2017-May-19 04:30N 53°32' E 000°07'0 0.0
2017-May-19 03:48N 53°32' E 000°07'0 0.0
2017-May-19 03:30N 53°32' E 000°07'0 0.0
2017-May-19 03:00N 53°32' E 000°07'0 0.0
2017-May-19 02:30N 53°32' E 000°07'0 0.0
2017-May-19 02:00N 53°32' E 000°07'0 0.0
2017-May-19 01:30N 53°32' E 000°07'0 0.0
2017-May-19 01:00N 53°32' E 000°07'0 0.2
2017-May-18 23:48N 53°32' E 000°07'0 0.0
2017-May-18 22:30N 53°32' E 000°07'0 0.0
2017-May-18 21:48N 53°32' E 000°07'0 0.0
2017-May-18 19:21N 53°32' E 000°07'0 0.1
2017-May-18 18:48N 53°32' E 000°07'0 0.0
2017-May-18 18:30N 53°32' E 000°07'0 0.1
2017-May-18 17:54N 53°32' E 000°07'0 0.3
2017-May-18 17:12N 53°32' E 000°07'0 0.3
2017-May-18 16:54N 53°32' E 000°07'0 0.1
2017-May-18 16:30N 53°32' E 000°07'0 0.1
2017-May-18 16:00N 53°32' E 000°07'0 0.0
2017-May-18 15:30N 53°32' E 000°07'0 0.1
2017-May-18 14:54N 53°32' E 000°07'0 0.0
2017-May-18 14:24N 53°32' E 000°07'0 0.0
2017-May-18 13:18N 53°32' E 000°07'0 0.0
2017-May-18 12:48N 53°32' E 000°07'0 0.0
2017-May-18 12:30N 53°32' E 000°07'0 0.1
2017-May-18 11:54N 53°32' E 000°07'0 0.0
2017-May-18 11:30N 53°32' E 000°07'0 0.1
2017-May-18 10:55N 53°32' E 000°07'0 0.5
2017-May-18 10:30N 53°32' E 000°07'1 1.4
2017-May-18 09:59N 53°32' E 000°09'14 4.1
2017-May-18 06:32N 53°42' E 000°26'0 2.1
2017-May-18 06:31N 53°42' E 000°26'14 1.2
2017-May-17 19:00N 53°56' E 000°20'914.6
2017-May-17 18:22N 54°05' E 000°20'914.2
2017-May-17 17:43N 54°14' E 000°20'314.0
2017-May-17 17:31N 54°17' E 000°20'713.8
2017-May-17 17:00N 54°24' E 000°18'713.7
2017-May-17 16:30N 54°31' E 000°18'713.8
2017-May-17 16:01N 54°38' E 000°20'  
Track history (hours):
 
Tides and Currents Weather Stations Pressure Air Temp Water Temp Dewpoint Dewpoint Depression Visibility Wind Speed Wind Dir Waves Ship Positions

Peary Spirit

Last reported at 2017-May-22 06:20 UTC. Time now 2017-May-23 01:10 UTC.
Position N 53°46' E 000°31'.

Length 249 m; draft 9.5 m.

Type: Tanker. MMSI: 311027600.

Date/timePositionNaut miles runAvg speedWind from/ knotsBaromVisibWave heightAir tempDewpointWater temp
2017-May-22 06:20N 53°46' E 000°31'  
2017-May-19 18:45N 53°36' E 000°19'411.8
2017-May-19 18:24N 53°33' E 000°13'3 8.2
2017-May-19 18:00N 53°32' E 000°08'0 0.9
2017-May-19 17:30N 53°32' E 000°07'0 0.1
2017-May-19 17:00N 53°32' E 000°07'0 0.0
2017-May-19 16:30N 53°32' E 000°07'0 0.0
2017-May-19 16:01N 53°32' E 000°07'0 0.1
2017-May-19 15:24N 53°32' E 000°07'0 0.1
2017-May-19 15:00N 53°32' E 000°07'0 0.0
2017-May-19 14:00N 53°32' E 000°07'0 0.0
2017-May-19 13:30N 53°32' E 000°07'0 0.0
2017-May-19 12:42N 53°32' E 000°07'0 0.1
2017-May-19 12:30N 53°32' E 000°07'0 0.1
2017-May-19 12:00N 53°32' E 000°07'0 0.0
2017-May-19 11:24N 53°32' E 000°07'0 0.1
2017-May-19 10:48N 53°32' E 000°07'0 0.0
2017-May-19 10:30N 53°32' E 000°07'0 0.1
2017-May-19 10:00N 53°32' E 000°07'0 0.1
2017-May-19 09:30N 53°32' E 000°07'0 0.1
2017-May-19 09:00N 53°32' E 000°07'0 0.1
2017-May-19 08:30N 53°32' E 000°07'0 0.0
2017-May-19 08:00N 53°32' E 000°07'0 0.2
2017-May-19 07:30N 53°32' E 000°07'0 0.0
2017-May-19 06:48N 53°32' E 000°07'0 0.0
2017-May-19 06:30N 53°32' E 000°07'0 0.0
2017-May-19 05:48N 53°32' E 000°07'0 0.1
2017-May-19 05:24N 53°32' E 000°07'0 0.1
2017-May-19 04:48N 53°32' E 000°07'0 0.0
2017-May-19 04:30N 53°32' E 000°07'0 0.0
2017-May-19 03:48N 53°32' E 000°07'0 0.0
2017-May-19 03:30N 53°32' E 000°07'0 0.0
2017-May-19 03:00N 53°32' E 000°07'0 0.0
2017-May-19 02:30N 53°32' E 000°07'0 0.0
2017-May-19 02:00N 53°32' E 000°07'0 0.0
2017-May-19 01:30N 53°32' E 000°07'0 0.0
2017-May-19 01:00N 53°32' E 000°07'0 0.2
2017-May-18 23:48N 53°32' E 000°07'0 0.0
2017-May-18 22:30N 53°32' E 000°07'0 0.0
2017-May-18 21:48N 53°32' E 000°07'0 0.0
2017-May-18 19:21N 53°32' E 000°07'0 0.1
2017-May-18 18:48N 53°32' E 000°07'0 0.0
2017-May-18 18:30N 53°32' E 000°07'0 0.1
2017-May-18 17:54N 53°32' E 000°07'0 0.3
2017-May-18 17:12N 53°32' E 000°07'0 0.3
2017-May-18 16:54N 53°32' E 000°07'0 0.1
2017-May-18 16:30N 53°32' E 000°07'0 0.1
2017-May-18 16:00N 53°32' E 000°07'0 0.0
2017-May-18 15:30N 53°32' E 000°07'0 0.1
2017-May-18 14:54N 53°32' E 000°07'0 0.0
2017-May-18 14:24N 53°32' E 000°07'0 0.0
2017-May-18 13:18N 53°32' E 000°07'0 0.0
2017-May-18 12:48N 53°32' E 000°07'0 0.0
2017-May-18 12:30N 53°32' E 000°07'0 0.1
2017-May-18 11:54N 53°32' E 000°07'0 0.0
2017-May-18 11:30N 53°32' E 000°07'0 0.1
2017-May-18 10:55N 53°32' E 000°07'0 0.5
2017-May-18 10:30N 53°32' E 000°07'1 1.4
2017-May-18 09:59N 53°32' E 000°09'14 4.1
2017-May-18 06:32N 53°42' E 000°26'0 2.1
2017-May-18 06:31N 53°42' E 000°26'14 1.2
2017-May-17 19:00N 53°56' E 000°20'914.6
2017-May-17 18:22N 54°05' E 000°20'914.2
2017-May-17 17:43N 54°14' E 000°20'314.0
2017-May-17 17:31N 54°17' E 000°20'713.8
2017-May-17 17:00N 54°24' E 000°18'713.7
2017-May-17 16:30N 54°31' E 000°18'713.8
2017-May-17 16:01N 54°38' E 000°20'  

Dump ship's entire track history